createdAt,value
2019-02-05T00:01:00.332Z,5.10
2019-02-05T00:03:27.818Z,5.10
2019-02-05T00:05:56.048Z,5.20
2019-02-05T00:08:24.113Z,5.10
2019-02-05T00:10:52.355Z,5.20
2019-02-05T00:13:19.809Z,5.20
2019-02-05T00:15:47.270Z,5.20
2019-02-05T00:18:14.741Z,5.20
2019-02-05T00:20:42.201Z,5.20
2019-02-05T00:23:09.669Z,5.20
2019-02-05T00:25:37.120Z,5.20
2019-02-05T00:28:04.691Z,5.20
2019-02-05T00:30:32.243Z,5.20
2019-02-05T00:32:59.810Z,5.20
2019-02-05T00:35:27.284Z,5.10
2019-02-05T00:37:54.757Z,5.20
2019-02-05T00:40:23.397Z,5.20
2019-02-05T00:42:50.857Z,5.10
2019-02-05T00:45:18.449Z,5.20
2019-02-05T00:47:45.911Z,5.10
2019-02-05T00:50:13.483Z,5.20
2019-02-05T00:52:41.034Z,5.20
2019-02-05T00:55:10.128Z,5.20
2019-02-05T00:57:37.608Z,5.20
2019-02-05T01:00:20.816Z,5.20
2019-02-05T01:02:48.284Z,5.20
2019-02-05T01:05:15.842Z,5.20
2019-02-05T01:07:43.405Z,5.20
2019-02-05T01:10:10.872Z,5.20
2019-02-05T01:12:38.330Z,5.20
2019-02-05T01:15:14.162Z,5.30
2019-02-05T01:17:41.631Z,5.30
2019-02-05T01:20:09.193Z,5.30
2019-02-05T01:22:36.672Z,5.40
2019-02-05T01:25:04.240Z,5.30
2019-02-05T01:27:32.298Z,5.40
2019-02-05T01:29:59.873Z,5.40
2019-02-05T01:32:27.330Z,5.40
2019-02-05T01:34:54.789Z,5.40
2019-02-05T01:37:22.361Z,5.30
2019-02-05T01:39:49.811Z,5.40
2019-02-05T01:42:17.281Z,5.40
2019-02-05T01:44:44.744Z,5.40
2019-02-05T01:47:12.307Z,5.40
2019-02-05T01:49:39.776Z,5.40
2019-02-05T01:52:07.663Z,5.50
2019-02-05T01:54:35.138Z,5.40
2019-02-05T01:57:04.310Z,5.40
2019-02-05T01:59:31.774Z,5.40
2019-02-05T02:01:59.249Z,5.40
2019-02-05T02:04:27.479Z,5.40
2019-02-05T02:06:54.954Z,5.40
2019-02-05T02:09:22.427Z,5.40
2019-02-05T02:11:49.907Z,5.40
2019-02-05T02:14:17.361Z,5.40
2019-02-05T02:16:44.809Z,5.50
2019-02-05T02:19:12.373Z,5.50
2019-02-05T02:21:39.958Z,5.50
2019-02-05T02:24:07.533Z,5.60
2019-02-05T02:26:35.083Z,5.50
2019-02-05T02:29:03.609Z,5.50
2019-02-05T02:31:31.134Z,5.50
2019-02-05T02:33:58.688Z,5.50
2019-02-05T02:36:26.156Z,5.60
2019-02-05T02:38:53.637Z,5.50
2019-02-05T02:41:22.385Z,5.60
2019-02-05T02:43:49.962Z,5.60
2019-02-05T02:46:17.430Z,5.60
2019-02-05T02:48:45.003Z,5.60
2019-02-05T02:51:12.477Z,5.60
2019-02-05T02:53:40.940Z,5.60
2019-02-05T02:56:08.401Z,5.60
2019-02-05T02:58:35.934Z,5.60
2019-02-05T03:01:04.340Z,5.60
2019-02-05T03:03:31.821Z,5.60
2019-02-05T03:05:59.287Z,5.60
2019-02-05T03:08:27.518Z,5.70
2019-02-05T03:10:54.990Z,5.60
2019-02-05T03:13:22.474Z,5.70
2019-02-05T03:15:50.716Z,5.70
2019-02-05T03:18:18.198Z,5.70
2019-02-05T03:20:45.686Z,5.70
2019-02-05T03:23:13.153Z,5.70
2019-02-05T03:25:40.711Z,5.70
2019-02-05T03:28:08.967Z,5.70
2019-02-05T03:30:36.427Z,5.80
2019-02-05T03:33:04.861Z,5.80
2019-02-05T03:35:33.127Z,5.80
2019-02-05T03:38:00.601Z,5.80
2019-02-05T03:43:21.972Z,5.80
2019-02-05T03:45:49.454Z,5.70
2019-02-05T03:48:16.918Z,5.70
2019-02-05T03:50:46.158Z,5.70
2019-02-05T03:53:31.839Z,5.70
2019-02-05T03:56:01.723Z,5.70
2019-02-05T04:01:25.379Z,5.70
2019-02-05T04:07:21.480Z,5.70
2019-02-05T04:10:02.602Z,5.70
2019-02-05T04:12:32.533Z,5.60
2019-02-05T04:15:07.638Z,5.70
2019-02-05T04:17:41.047Z,5.70
2019-02-05T04:20:34.216Z,5.70
2019-02-05T04:23:21.091Z,5.60
2019-02-05T04:25:49.355Z,5.60
2019-02-05T04:28:17.772Z,5.70
2019-02-05T04:33:54.087Z,5.70
2019-02-05T04:36:32.200Z,5.70
2019-02-05T04:39:02.618Z,5.60
2019-02-05T04:41:35.666Z,5.70
2019-02-05T04:44:06.352Z,5.70
2019-02-05T04:46:42.609Z,5.70
2019-02-05T04:49:17.478Z,5.60
2019-02-05T04:52:03.517Z,5.60
2019-02-05T04:54:31.778Z,5.70
2019-02-05T04:57:10.729Z,5.60
2019-02-05T04:59:47.153Z,5.60
2019-02-05T05:02:16.691Z,5.60
2019-02-05T05:04:53.827Z,5.60
2019-02-05T05:07:36.459Z,5.70
2019-02-05T05:10:03.965Z,5.70
2019-02-05T05:12:31.419Z,5.60
2019-02-05T05:14:58.907Z,5.60
2019-02-05T05:17:26.476Z,5.60
2019-02-05T05:19:53.956Z,5.60
2019-02-05T05:22:21.514Z,5.60
2019-02-05T05:24:49.196Z,5.50
2019-02-05T05:27:16.641Z,5.50
2019-02-05T05:29:44.930Z,5.50
2019-02-05T05:32:12.402Z,5.50
2019-02-05T05:34:40.660Z,5.60
2019-02-05T05:37:07.632Z,5.50
2019-02-05T05:39:35.945Z,5.40
2019-02-05T05:42:03.836Z,5.50
2019-02-05T05:44:31.297Z,5.50
2019-02-05T05:46:58.882Z,5.40
2019-02-05T05:49:26.439Z,5.50
2019-02-05T05:51:54.449Z,5.50
2019-02-05T05:54:22.705Z,5.50
2019-02-05T05:56:50.171Z,5.50
2019-02-05T05:59:17.632Z,5.50
2019-02-05T06:01:45.862Z,5.50
2019-02-05T06:04:13.320Z,5.50
2019-02-05T06:06:41.308Z,5.60
2019-02-05T06:09:08.769Z,5.60
2019-02-05T06:11:36.234Z,5.50
2019-02-05T06:14:04.659Z,5.50
2019-02-05T06:16:32.891Z,5.50
2019-02-05T06:19:00.362Z,5.50
2019-02-05T06:21:27.838Z,5.50
2019-02-05T06:23:55.315Z,5.50
2019-02-05T06:26:23.603Z,5.50
2019-02-05T06:28:51.052Z,5.50
2019-02-05T06:31:18.629Z,5.50
2019-02-05T06:33:46.113Z,5.50
2019-02-05T06:36:14.334Z,5.40
2019-02-05T06:38:44.617Z,5.50
2019-02-05T06:41:10.143Z,5.40
2019-02-05T06:43:37.676Z,5.40
2019-02-05T06:46:05.314Z,5.50
2019-02-05T06:48:32.783Z,5.50
2019-02-05T06:51:00.263Z,5.50
2019-02-05T06:53:27.739Z,5.60
2019-02-05T06:55:56.107Z,5.50
2019-02-05T06:58:23.677Z,5.50
2019-02-05T07:00:51.245Z,5.50
2019-02-05T07:03:21.366Z,5.50
2019-02-05T07:05:48.995Z,5.50
2019-02-05T07:08:16.547Z,5.50
2019-02-05T07:10:44.346Z,5.50
2019-02-05T07:13:11.991Z,5.50
2019-02-05T07:15:39.544Z,5.50
2019-02-05T07:18:07.085Z,5.50
2019-02-05T07:20:34.651Z,5.50
2019-02-05T07:23:02.209Z,5.60
2019-02-05T07:25:29.764Z,5.50
2019-02-05T07:27:58.080Z,5.50
2019-02-05T07:30:25.649Z,5.50
2019-02-05T07:32:53.209Z,5.50
2019-02-05T07:35:20.740Z,5.50
2019-02-05T07:37:49.058Z,5.60
2019-02-05T07:40:16.633Z,5.60
2019-02-05T07:42:44.303Z,5.60
2019-02-05T07:45:11.871Z,5.60
2019-02-05T07:47:39.407Z,5.60
2019-02-05T07:50:09.861Z,5.60
2019-02-05T07:52:37.427Z,5.70
2019-02-05T07:55:05.095Z,5.70
2019-02-05T07:57:32.623Z,5.70
2019-02-05T08:00:00.234Z,5.70
2019-02-05T08:02:28.695Z,5.70
2019-02-05T08:04:56.253Z,5.70
2019-02-05T08:07:23.810Z,5.60
2019-02-05T08:09:51.366Z,5.70
2019-02-05T08:12:18.923Z,5.70
2019-02-05T08:14:46.471Z,5.70
2019-02-05T08:17:14.079Z,5.70
2019-02-05T08:19:41.641Z,5.60
2019-02-05T08:22:09.712Z,5.70
2019-02-05T08:24:36.883Z,5.70
2019-02-05T08:27:04.414Z,5.70
2019-02-05T08:29:32.012Z,5.70
2019-02-05T08:31:59.584Z,5.60
2019-02-05T08:34:27.135Z,5.70
2019-02-05T08:36:54.677Z,5.70
2019-02-05T08:39:22.257Z,5.70
2019-02-05T08:41:49.821Z,5.60
2019-02-05T08:44:17.943Z,5.60
2019-02-05T08:46:46.284Z,5.70
2019-02-05T08:49:13.844Z,5.70
2019-02-05T08:51:41.412Z,5.70
2019-02-05T08:54:08.967Z,5.70
2019-02-05T08:56:36.536Z,5.70
2019-02-05T08:59:04.112Z,5.70
2019-02-05T09:01:31.674Z,5.70
2019-02-05T09:03:59.260Z,5.70
2019-02-05T09:06:26.904Z,5.70
2019-02-05T09:08:54.458Z,5.70
2019-02-05T09:11:22.004Z,5.70
2019-02-05T09:13:49.575Z,5.70
2019-02-05T09:16:17.156Z,5.70
2019-02-05T09:18:44.695Z,5.60
2019-02-05T09:21:12.254Z,5.70
2019-02-05T09:23:39.803Z,5.70
2019-02-05T09:26:08.114Z,5.80
2019-02-05T09:28:35.657Z,5.70
2019-02-05T09:31:04.743Z,5.80
2019-02-05T09:33:32.292Z,5.70
2019-02-05T09:36:00.628Z,5.80
2019-02-05T09:38:28.209Z,5.70
2019-02-05T09:40:55.909Z,5.80
2019-02-05T09:43:24.131Z,5.80
2019-02-05T09:45:51.700Z,5.80
2019-02-05T09:48:19.261Z,5.80
2019-02-05T09:50:46.798Z,5.80
2019-02-05T09:53:14.357Z,5.80
2019-02-05T09:55:42.665Z,5.80
2019-02-05T09:58:10.228Z,5.80
2019-02-05T10:00:37.807Z,5.80
2019-02-05T10:03:05.366Z,5.80
2019-02-05T10:05:32.908Z,5.90
2019-02-05T10:08:00.470Z,5.90
2019-02-05T10:10:28.008Z,5.90
2019-02-05T10:12:57.051Z,5.90
2019-02-05T10:15:24.744Z,5.90
2019-02-05T10:17:52.358Z,5.90
2019-02-05T10:20:19.955Z,5.90
2019-02-05T10:22:47.516Z,5.90
2019-02-05T10:25:15.126Z,5.90
2019-02-05T10:27:42.648Z,5.90
2019-02-05T10:30:18.692Z,5.90
2019-02-05T10:32:46.272Z,5.90
2019-02-05T10:35:13.836Z,5.90
2019-02-05T10:37:41.423Z,5.90
2019-02-05T10:40:09.773Z,6.00
2019-02-05T10:42:37.308Z,5.90
2019-02-05T10:45:05.559Z,6.00
2019-02-05T10:47:33.096Z,5.90
2019-02-05T10:50:00.758Z,6.00
2019-02-05T10:52:28.323Z,6.00
2019-02-05T10:54:55.907Z,6.00
2019-02-05T10:57:23.546Z,6.10
2019-02-05T10:59:51.101Z,6.00
2019-02-05T11:02:18.753Z,6.10
2019-02-05T11:04:46.341Z,6.10
2019-02-05T11:07:13.885Z,6.10
2019-02-05T11:09:41.472Z,6.20
2019-02-05T11:12:09.711Z,6.20
2019-02-05T11:14:37.285Z,6.30
2019-02-05T11:17:04.890Z,6.20
2019-02-05T11:19:32.435Z,6.20
2019-02-05T11:21:59.993Z,6.20
2019-02-05T11:24:27.533Z,6.30
2019-02-05T11:26:55.148Z,6.30
2019-02-05T11:29:22.807Z,6.40
2019-02-05T11:31:50.359Z,6.40
2019-02-05T11:34:18.253Z,6.30
2019-02-05T11:36:45.809Z,6.30
2019-02-05T11:39:13.359Z,6.50
2019-02-05T11:41:40.936Z,6.50
2019-02-05T11:44:08.484Z,6.40
2019-02-05T11:46:36.058Z,6.40
2019-02-05T11:49:04.644Z,6.50
2019-02-05T11:51:32.192Z,6.50
2019-02-05T11:53:59.763Z,6.50
2019-02-05T11:56:27.310Z,6.60
2019-02-05T11:58:54.876Z,6.70
2019-02-05T12:01:22.471Z,6.60
2019-02-05T12:03:50.016Z,6.60
2019-02-05T12:06:17.581Z,6.60
2019-02-05T12:08:45.121Z,6.60
2019-02-05T12:11:12.699Z,6.50
2019-02-05T12:13:40.253Z,6.60
2019-02-05T12:16:07.793Z,6.50
2019-02-05T12:18:36.208Z,6.60
2019-02-05T12:21:03.739Z,6.60
2019-02-05T12:23:32.076Z,6.60
2019-02-05T12:25:59.631Z,6.60
2019-02-05T12:28:27.217Z,6.70
2019-02-05T12:30:54.773Z,6.60
2019-02-05T12:33:22.704Z,6.60
2019-02-05T12:35:51.003Z,6.60
2019-02-05T12:38:18.563Z,6.60
2019-02-05T12:40:47.295Z,6.60
2019-02-05T12:43:14.835Z,6.60
2019-02-05T12:45:42.384Z,6.70
2019-02-05T12:48:09.911Z,6.60
2019-02-05T12:50:37.439Z,6.70
2019-02-05T12:53:05.034Z,6.60
2019-02-05T12:55:32.597Z,6.70
2019-02-05T12:58:00.159Z,6.70
2019-02-05T13:00:37.745Z,6.70
2019-02-05T13:03:05.271Z,6.70
2019-02-05T13:05:32.817Z,6.70
2019-02-05T13:08:00.399Z,6.70
2019-02-05T13:10:31.043Z,6.70
2019-02-05T13:12:59.304Z,6.70
2019-02-05T13:15:26.934Z,6.70
2019-02-05T13:17:54.918Z,6.70
2019-02-05T13:20:23.459Z,6.80
2019-02-05T13:22:51.107Z,6.80
2019-02-05T13:25:19.508Z,6.80
2019-02-05T13:27:47.061Z,6.70
2019-02-05T13:30:14.588Z,6.80
2019-02-05T13:32:42.892Z,6.80
2019-02-05T13:35:10.417Z,6.70
2019-02-05T13:37:37.954Z,6.70
2019-02-05T13:40:07.760Z,6.70
2019-02-05T13:42:35.285Z,6.70
2019-02-05T13:45:03.749Z,6.80
2019-02-05T13:47:31.281Z,6.70
2019-02-05T13:49:58.834Z,6.70
2019-02-05T13:52:26.886Z,6.70
2019-02-05T13:54:54.435Z,6.70
2019-02-05T13:57:22.027Z,6.70
2019-02-05T13:59:49.607Z,6.70
2019-02-05T14:02:17.146Z,6.70
2019-02-05T14:04:44.725Z,6.70
2019-02-05T14:07:12.716Z,6.70
2019-02-05T14:09:40.249Z,6.70
2019-02-05T14:12:07.807Z,6.70
2019-02-05T14:14:35.385Z,6.70
2019-02-05T14:17:03.658Z,6.80
2019-02-05T14:19:31.639Z,6.80
2019-02-05T14:21:59.171Z,6.70
2019-02-05T14:24:27.468Z,6.70
2019-02-05T14:26:55.040Z,6.70
2019-02-05T14:29:22.600Z,6.70
2019-02-05T14:31:50.180Z,6.80
2019-02-05T14:34:17.731Z,6.70
2019-02-05T14:36:45.264Z,6.70
2019-02-05T14:39:13.605Z,6.70
2019-02-05T14:41:41.147Z,6.70
2019-02-05T14:44:08.712Z,6.70
2019-02-05T14:46:36.270Z,6.70
2019-02-05T14:49:04.958Z,6.70
2019-02-05T14:51:32.679Z,6.70
2019-02-05T14:54:00.307Z,6.70
2019-02-05T14:56:28.079Z,6.70
2019-02-05T14:58:55.640Z,6.70
2019-02-05T15:01:23.178Z,6.70
2019-02-05T15:03:50.757Z,6.70
2019-02-05T15:06:18.316Z,6.70
2019-02-05T15:08:46.148Z,6.80
2019-02-05T15:11:14.468Z,6.70
2019-02-05T15:13:42.014Z,6.70
2019-02-05T15:16:10.305Z,6.70
2019-02-05T15:18:37.848Z,6.70
2019-02-05T15:21:06.169Z,6.70
2019-02-05T15:23:33.731Z,6.70
2019-02-05T15:26:01.294Z,6.70
2019-02-05T15:28:28.872Z,6.70
2019-02-05T15:30:56.447Z,6.70
2019-02-05T15:33:30.088Z,6.70
2019-02-05T15:35:59.306Z,6.60
2019-02-05T15:38:26.911Z,6.60
2019-02-05T15:40:54.535Z,6.60
2019-02-05T15:43:22.134Z,6.60
2019-02-05T15:45:49.684Z,6.60
2019-02-05T15:48:17.243Z,6.60
2019-02-05T15:50:44.769Z,6.60
2019-02-05T15:53:13.096Z,6.60
2019-02-05T15:55:40.688Z,6.60
2019-02-05T15:58:08.231Z,6.50
2019-02-05T16:00:35.788Z,6.50
2019-02-05T16:03:04.761Z,6.50
2019-02-05T16:05:32.358Z,6.50
2019-02-05T16:07:59.909Z,6.50
2019-02-05T16:10:27.453Z,6.40
2019-02-05T16:12:55.031Z,6.40
2019-02-05T16:15:22.583Z,6.40
2019-02-05T16:17:50.110Z,6.40
2019-02-05T16:20:17.651Z,6.40
2019-02-05T16:22:45.199Z,6.40
2019-02-05T16:25:13.295Z,6.40
2019-02-05T16:27:40.942Z,6.30
2019-02-05T16:30:19.152Z,6.30
2019-02-05T16:32:46.719Z,6.30
2019-02-05T16:35:14.269Z,6.30
2019-02-05T16:37:41.816Z,6.30
2019-02-05T16:40:12.195Z,6.30
2019-02-05T16:42:39.819Z,6.40
2019-02-05T16:45:07.491Z,6.30
2019-02-05T16:47:35.024Z,6.20
2019-02-05T16:50:02.625Z,6.20
2019-02-05T16:52:30.417Z,6.20
2019-02-05T16:54:57.958Z,6.20
2019-02-05T16:57:25.519Z,6.20
2019-02-05T16:59:53.894Z,6.20
2019-02-05T17:02:28.660Z,6.10
2019-02-05T17:04:49.151Z,6.10
2019-02-05T17:07:16.691Z,6.20
2019-02-05T17:09:44.251Z,6.10
2019-02-05T17:12:11.775Z,6.10
2019-02-05T17:14:40.089Z,6.00
2019-02-05T17:17:07.628Z,6.10
2019-02-05T17:19:35.205Z,6.00
2019-02-05T17:22:03.710Z,6.00
2019-02-05T17:24:31.244Z,6.00
2019-02-05T17:26:59.572Z,5.90
2019-02-05T17:29:27.107Z,5.90
2019-02-05T17:31:54.648Z,5.90
2019-02-05T17:34:25.359Z,5.90
2019-02-05T17:36:53.711Z,5.90
2019-02-05T17:39:21.261Z,5.90
2019-02-05T17:41:48.793Z,5.90
2019-02-05T17:44:17.099Z,5.90
2019-02-05T17:46:44.684Z,5.90
2019-02-05T17:49:12.346Z,5.90
2019-02-05T17:51:39.802Z,5.90
2019-02-05T17:54:07.476Z,5.80
2019-02-05T17:56:35.451Z,5.80
2019-02-05T17:59:03.828Z,5.80
2019-02-05T18:01:31.384Z,5.90
2019-02-05T18:03:58.962Z,5.90
2019-02-05T18:06:26.631Z,5.80
2019-02-05T18:08:54.159Z,5.80
2019-02-05T18:11:21.712Z,5.80
2019-02-05T18:13:50.025Z,5.80
2019-02-05T18:16:17.599Z,5.80
2019-02-05T18:18:45.144Z,5.80
2019-02-05T18:21:12.680Z,5.80
2019-02-05T18:23:41.000Z,5.80
2019-02-05T18:26:08.544Z,5.80
2019-02-05T18:28:36.126Z,5.80
2019-02-05T18:31:04.492Z,5.90
2019-02-05T18:33:32.023Z,5.80
2019-02-05T18:36:00.336Z,5.90
2019-02-05T18:38:29.881Z,5.90
2019-02-05T18:40:57.432Z,5.90
2019-02-05T18:43:24.998Z,5.90
2019-02-05T18:45:53.323Z,5.90
2019-02-05T18:48:20.858Z,5.90
2019-02-05T18:50:48.403Z,5.90
2019-02-05T18:53:15.930Z,5.90
2019-02-05T18:55:44.252Z,5.90
2019-02-05T18:58:11.810Z,5.80
2019-02-05T19:00:41.204Z,5.90
2019-02-05T19:03:15.532Z,5.80
2019-02-05T19:05:37.081Z,5.90
2019-02-05T19:08:05.379Z,5.90
2019-02-05T19:10:32.920Z,5.80
2019-02-05T19:13:00.477Z,5.90
2019-02-05T19:15:30.822Z,5.80
2019-02-05T19:17:58.488Z,5.80
2019-02-05T19:20:26.950Z,5.80
2019-02-05T19:22:54.513Z,5.80
2019-02-05T19:25:24.682Z,5.80
2019-02-05T19:27:53.020Z,5.80
2019-02-05T19:30:20.563Z,5.70
2019-02-05T19:32:48.536Z,5.80
2019-02-05T19:35:16.102Z,5.70
2019-02-05T19:37:44.408Z,5.70
2019-02-05T19:40:11.944Z,5.70
2019-02-05T19:42:39.472Z,5.70
2019-02-05T19:45:10.531Z,5.70
2019-02-05T19:47:39.303Z,5.60
2019-02-05T19:50:06.410Z,5.60
2019-02-05T19:52:34.099Z,5.70
2019-02-05T19:55:01.655Z,5.70
2019-02-05T19:57:29.212Z,5.70
2019-02-05T19:59:56.977Z,5.60
2019-02-05T20:02:24.532Z,5.60
2019-02-05T20:04:52.127Z,5.60
2019-02-05T20:07:19.704Z,5.60
2019-02-05T20:09:47.231Z,5.60
2019-02-05T20:12:14.772Z,5.60
2019-02-05T20:14:42.346Z,5.50
2019-02-05T20:17:09.938Z,5.50
2019-02-05T20:19:37.596Z,5.50
2019-02-05T20:22:05.180Z,5.50
2019-02-05T20:24:33.462Z,5.50
2019-02-05T20:27:01.010Z,5.40
2019-02-05T20:29:28.549Z,5.40
2019-02-05T20:31:56.082Z,5.40
2019-02-05T20:34:23.649Z,5.40
2019-02-05T20:36:51.950Z,5.40
2019-02-05T20:39:19.504Z,5.40
2019-02-05T20:41:47.820Z,5.40
2019-02-05T20:44:15.383Z,5.40
2019-02-05T20:46:42.916Z,5.30
2019-02-05T20:49:11.226Z,5.30
2019-02-05T20:51:38.807Z,5.30
2019-02-05T20:54:07.184Z,5.30
2019-02-05T20:56:34.721Z,5.30
2019-02-05T20:59:02.303Z,5.30
2019-02-05T21:01:29.840Z,5.30
2019-02-05T21:04:01.198Z,5.30
2019-02-05T21:06:25.728Z,5.30
2019-02-05T21:08:53.275Z,5.30
2019-02-05T21:11:20.807Z,5.30
2019-02-05T21:13:49.104Z,5.30
2019-02-05T21:16:16.651Z,5.30
2019-02-05T21:18:44.963Z,5.30
2019-02-05T21:21:12.514Z,5.30
2019-02-05T21:23:40.059Z,5.40
2019-02-05T21:26:08.380Z,5.30
2019-02-05T21:28:37.466Z,5.30
2019-02-05T21:31:05.047Z,5.30
2019-02-05T21:33:32.600Z,5.30
2019-02-05T21:36:00.125Z,5.20
2019-02-05T21:38:28.684Z,5.30
2019-02-05T21:40:57.031Z,5.30
2019-02-05T21:43:24.557Z,5.20
2019-02-05T21:45:53.932Z,5.20
2019-02-05T21:48:26.655Z,5.20
2019-02-05T21:50:54.985Z,5.20
2019-02-05T21:53:22.639Z,5.10
2019-02-05T21:55:50.338Z,5.10
2019-02-05T21:58:17.924Z,5.10
2019-02-05T22:00:46.317Z,5.10
2019-02-05T22:03:18.165Z,5.10
2019-02-05T22:05:45.783Z,5.10
2019-02-05T22:08:13.449Z,5.10
2019-02-05T22:10:41.767Z,5.10
2019-02-05T22:13:09.383Z,5.10
2019-02-05T22:15:36.940Z,5.10
2019-02-05T22:18:04.485Z,5.10
2019-02-05T22:20:32.079Z,5.10
2019-02-05T22:22:59.623Z,5.10
2019-02-05T22:25:27.200Z,5.10
2019-02-05T22:27:54.759Z,5.10
2019-02-05T22:30:22.747Z,5.10
2019-02-05T22:32:55.007Z,5.00
2019-02-05T22:35:23.520Z,5.00
2019-02-05T22:37:51.892Z,4.90
2019-02-05T22:40:19.467Z,4.90
2019-02-05T22:42:47.008Z,4.90
2019-02-05T22:45:14.557Z,4.90
2019-02-05T22:47:42.101Z,4.90
2019-02-05T22:50:13.285Z,4.90
2019-02-05T22:52:40.836Z,4.90
2019-02-05T22:55:09.175Z,4.90
2019-02-05T22:57:37.512Z,4.80
2019-02-05T23:00:09.433Z,4.80
2019-02-05T23:02:39.088Z,4.80
2019-02-05T23:05:10.684Z,4.70
2019-02-05T23:07:38.222Z,4.70
2019-02-05T23:10:12.115Z,4.70
2019-02-05T23:12:39.667Z,4.70
2019-02-05T23:15:08.642Z,4.70
2019-02-05T23:17:36.969Z,4.60
2019-02-05T23:20:04.530Z,4.60
2019-02-05T23:22:32.027Z,4.70
2019-02-05T23:24:59.495Z,4.60
2019-02-05T23:27:26.992Z,4.70
2019-02-05T23:29:54.433Z,4.60
2019-02-05T23:32:22.659Z,4.60
2019-02-05T23:35:01.818Z,4.50
2019-02-05T23:37:17.613Z,4.60
2019-02-05T23:39:45.078Z,4.50
2019-02-05T23:42:12.635Z,4.50
2019-02-05T23:44:40.105Z,4.50
2019-02-05T23:47:07.669Z,4.50
2019-02-05T23:49:35.120Z,4.60
2019-02-05T23:52:02.593Z,4.50
2019-02-05T23:54:30.150Z,4.50
2019-02-05T23:56:57.709Z,4.40
2019-02-05T23:59:25.985Z,4.40
